createdAt,value
2022-08-31T00:01:50.474Z,101055.09
2022-08-31T00:06:54.223Z,101055.56
2022-08-31T00:11:59.593Z,101054.38
2022-08-31T00:17:04.359Z,101058.38
2022-08-31T00:22:08.009Z,101064.66
2022-08-31T00:27:13.256Z,101066.50
2022-08-31T00:32:16.882Z,101071.00
2022-08-31T00:37:25.075Z,101062.78
2022-08-31T00:42:30.381Z,101068.66
2022-08-31T00:47:33.954Z,101062.84
2022-08-31T00:52:40.007Z,101060.38
2022-08-31T00:57:48.653Z,101057.06
2022-08-31T01:02:52.667Z,101061.38
2022-08-31T01:07:57.039Z,101066.88
2022-08-31T01:13:03.387Z,101069.78
2022-08-31T01:18:08.003Z,101070.63
2022-08-31T01:23:17.030Z,101073.38
2022-08-31T01:28:20.729Z,101069.63
2022-08-31T01:33:24.379Z,101056.34
2022-08-31T01:38:30.242Z,101080.09
2022-08-31T01:43:35.310Z,101074.56
2022-08-31T01:48:41.495Z,101082.00
2022-08-31T01:53:50.082Z,101083.91
2022-08-31T01:58:53.761Z,101081.34
2022-08-31T02:03:57.374Z,101078.63
2022-08-31T02:09:04.728Z,101078.16
2022-08-31T02:14:09.273Z,101080.25
2022-08-31T02:19:13.385Z,101097.09
2022-08-31T02:24:18.663Z,101093.50
2022-08-31T02:29:22.327Z,101094.66
2022-08-31T02:34:26.169Z,101101.78
2022-08-31T02:39:32.518Z,101103.69
2022-08-31T02:44:36.174Z,101106.19
2022-08-31T02:49:39.739Z,101117.78
2022-08-31T02:54:45.950Z,101121.06
2022-08-31T02:59:49.794Z,101123.06
2022-08-31T03:04:53.439Z,101132.91
2022-08-31T03:09:58.677Z,101134.63
2022-08-31T03:15:02.629Z,101139.97
2022-08-31T03:20:07.656Z,101146.75
2022-08-31T03:25:13.047Z,101160.03
2022-08-31T03:30:19.691Z,101161.00
2022-08-31T03:35:23.483Z,101163.41
2022-08-31T03:40:28.950Z,101178.13
2022-08-31T03:45:32.575Z,101176.41
2022-08-31T03:50:36.925Z,101185.75
2022-08-31T03:55:43.936Z,101182.84
2022-08-31T04:00:47.486Z,101189.19
2022-08-31T04:05:51.389Z,101198.94
2022-08-31T04:10:56.596Z,101202.69
2022-08-31T04:16:01.032Z,101201.06
2022-08-31T04:21:04.956Z,101201.28
2022-08-31T04:26:16.816Z,101215.41
2022-08-31T04:31:22.277Z,101218.34
2022-08-31T04:36:27.765Z,101220.47
2022-08-31T04:41:33.140Z,101213.22
2022-08-31T04:46:38.914Z,101221.22
2022-08-31T04:51:42.486Z,101229.75
2022-08-31T04:56:47.727Z,101235.59
2022-08-31T05:01:51.375Z,101241.16
2022-08-31T05:06:55.045Z,101237.97
2022-08-31T05:12:00.470Z,101227.84
2022-08-31T05:17:04.057Z,101230.13
2022-08-31T05:22:11.796Z,101237.88
2022-08-31T05:27:17.075Z,101243.69
2022-08-31T05:32:20.639Z,101240.88
2022-08-31T05:37:24.340Z,101241.47
2022-08-31T05:42:29.781Z,101250.81
2022-08-31T05:47:33.351Z,101247.75
2022-08-31T05:52:37.656Z,101257.06
2022-08-31T05:57:42.859Z,101242.16
2022-08-31T06:02:46.435Z,101237.03
2022-08-31T06:07:49.988Z,101231.19
2022-08-31T06:12:55.230Z,101232.22
2022-08-31T06:17:58.806Z,101234.81
2022-08-31T06:23:02.381Z,101235.88
2022-08-31T06:28:07.907Z,101241.88
2022-08-31T06:33:12.276Z,101245.13
2022-08-31T06:38:15.897Z,101247.75
2022-08-31T06:43:21.374Z,101246.47
2022-08-31T06:48:25.358Z,101252.59
2022-08-31T06:53:29.058Z,101242.97
2022-08-31T06:58:34.771Z,101237.75
2022-08-31T07:03:38.371Z,101226.59
2022-08-31T07:08:42.722Z,101225.00
2022-08-31T07:13:48.997Z,101221.31
2022-08-31T07:18:53.888Z,101229.13
2022-08-31T07:23:59.848Z,101223.94
2022-08-31T07:29:07.710Z,101234.91
2022-08-31T07:34:12.351Z,101230.56
2022-08-31T07:39:15.957Z,101234.94
2022-08-31T07:44:22.182Z,101230.66
2022-08-31T07:49:25.738Z,101235.28
2022-08-31T07:54:29.361Z,101234.69
2022-08-31T07:59:35.171Z,101228.56
2022-08-31T08:04:38.003Z,101224.84
2022-08-31T08:09:41.599Z,101231.22
2022-08-31T08:14:46.844Z,101227.47
2022-08-31T08:19:50.435Z,101225.09
2022-08-31T08:24:55.501Z,101227.59
2022-08-31T08:30:01.007Z,101227.94
2022-08-31T08:35:05.432Z,101222.53
2022-08-31T08:40:14.186Z,101226.50
2022-08-31T08:45:19.808Z,101226.72
2022-08-31T08:50:25.774Z,101225.97
2022-08-31T08:55:36.518Z,101227.22
2022-08-31T09:00:41.910Z,101219.34
2022-08-31T09:06:03.608Z,101217.91
2022-08-31T09:11:14.020Z,101224.75
2022-08-31T09:16:27.606Z,101223.34
2022-08-31T09:21:35.282Z,101223.00
2022-08-31T09:26:53.256Z,101219.97
2022-08-31T09:32:07.683Z,101220.03
2022-08-31T09:37:13.857Z,101212.69
2022-08-31T09:42:33.787Z,101208.56
2022-08-31T09:47:46.637Z,101227.00
2022-08-31T09:52:50.225Z,101216.00
2022-08-31T09:57:56.437Z,101217.88
2022-08-31T10:03:10.414Z,101205.13
2022-08-31T10:08:34.574Z,101204.59
2022-08-31T10:13:41.013Z,101198.06
2022-08-31T10:18:55.359Z,101192.94
2022-08-31T10:24:13.833Z,101195.56
2022-08-31T10:29:27.277Z,101191.63
2022-08-31T10:34:36.555Z,101194.22
2022-08-31T10:39:44.500Z,101194.34
2022-08-31T10:44:53.014Z,101203.41
2022-08-31T10:50:00.651Z,101200.13
2022-08-31T10:55:15.015Z,101206.13
2022-08-31T11:00:21.897Z,101203.53
2022-08-31T11:05:34.785Z,101205.44
2022-08-31T11:10:47.653Z,101206.16
2022-08-31T11:16:15.187Z,101202.03
2022-08-31T11:21:51.642Z,101193.22
2022-08-31T11:27:05.457Z,101206.84
2022-08-31T11:32:18.707Z,101203.53
2022-08-31T11:37:57.558Z,101201.31
2022-08-31T11:43:01.175Z,101202.00
2022-08-31T11:48:06.939Z,101199.88
2022-08-31T11:53:21.619Z,101203.53
2022-08-31T11:58:30.462Z,101210.50
2022-08-31T12:03:52.337Z,101210.28
2022-08-31T12:09:18.583Z,101205.84
2022-08-31T12:14:32.528Z,101213.78
2022-08-31T12:19:46.049Z,101213.88
2022-08-31T12:25:09.720Z,101210.44
2022-08-31T12:30:22.523Z,101209.75
2022-08-31T12:35:27.625Z,101222.25
2022-08-31T12:40:33.947Z,101223.91
2022-08-31T12:46:01.344Z,101219.28
2022-08-31T12:51:15.605Z,101228.84
2022-08-31T12:56:30.062Z,101238.44
2022-08-31T13:01:40.377Z,101238.63
2022-08-31T13:06:44.161Z,101237.00
2022-08-31T13:11:54.333Z,101245.63
2022-08-31T13:17:05.475Z,101241.38
2022-08-31T13:22:12.101Z,101242.47
2022-08-31T13:27:21.734Z,101243.69
2022-08-31T13:32:34.414Z,101248.91
2022-08-31T13:37:41.543Z,101250.81
2022-08-31T13:42:56.878Z,101267.31
2022-08-31T13:48:02.330Z,101262.56
2022-08-31T13:53:26.344Z,101280.25
2022-08-31T13:58:33.172Z,101280.88
2022-08-31T14:03:39.673Z,101282.56
2022-08-31T14:08:48.510Z,101279.00
2022-08-31T14:13:53.786Z,101286.72
2022-08-31T14:18:57.381Z,101293.06
2022-08-31T14:24:02.250Z,101311.50
2022-08-31T14:29:10.000Z,101304.22
2022-08-31T14:34:20.449Z,101307.81
2022-08-31T14:39:26.484Z,101312.34
2022-08-31T14:44:32.070Z,101320.41
2022-08-31T14:49:36.757Z,101322.41
2022-08-31T14:54:41.230Z,101326.59
2022-08-31T14:59:46.896Z,101321.28
2022-08-31T15:04:50.329Z,101326.06
2022-08-31T15:09:53.922Z,101330.69
2022-08-31T15:14:59.283Z,101332.22
2022-08-31T15:20:04.445Z,101338.75
2022-08-31T15:25:09.046Z,101338.31
2022-08-31T15:30:16.560Z,101343.16
2022-08-31T15:35:22.529Z,101345.03
2022-08-31T15:40:29.363Z,101340.47
2022-08-31T15:45:34.836Z,101345.06
2022-08-31T15:50:38.448Z,101332.72
2022-08-31T15:55:42.064Z,101334.41
2022-08-31T16:00:47.443Z,101338.31
2022-08-31T16:05:51.075Z,101334.75
2022-08-31T16:10:55.090Z,101334.97
2022-08-31T16:16:00.324Z,101340.94
2022-08-31T16:21:06.539Z,101345.56
2022-08-31T16:26:10.130Z,101342.66
2022-08-31T16:31:15.446Z,101350.66
2022-08-31T16:36:19.217Z,101340.53
2022-08-31T16:41:24.332Z,101336.03
2022-08-31T16:46:40.693Z,101324.41
2022-08-31T16:51:48.526Z,101332.19
2022-08-31T16:56:52.418Z,101335.53
2022-08-31T17:01:57.789Z,101331.22
2022-08-31T17:07:01.359Z,101335.94
2022-08-31T17:12:06.900Z,101322.25
2022-08-31T17:17:14.321Z,101334.19
2022-08-31T17:22:24.490Z,101338.25
2022-08-31T17:27:31.185Z,101328.59
2022-08-31T17:32:39.385Z,101330.47
2022-08-31T17:37:48.940Z,101322.34
2022-08-31T17:42:55.024Z,101329.22
2022-08-31T17:48:03.489Z,101321.78
2022-08-31T17:53:07.094Z,101314.25
2022-08-31T17:58:10.741Z,101310.19
2022-08-31T18:03:16.004Z,101323.16
2022-08-31T18:08:19.915Z,101314.88
2022-08-31T18:13:24.510Z,101319.50
2022-08-31T18:18:30.077Z,101312.78
2022-08-31T18:23:33.890Z,101308.25
2022-08-31T18:28:37.535Z,101303.69
2022-08-31T18:33:42.838Z,101297.38
2022-08-31T18:38:47.310Z,101293.38
2022-08-31T18:43:51.025Z,101292.06
2022-08-31T18:48:58.857Z,101274.75
2022-08-31T18:54:11.179Z,101272.16
2022-08-31T18:59:15.741Z,101276.38
2022-08-31T19:04:22.023Z,101269.88
2022-08-31T19:09:26.352Z,101257.75
2022-08-31T19:14:32.536Z,101252.84
2022-08-31T19:19:38.485Z,101246.59
2022-08-31T19:24:42.622Z,101250.75
2022-08-31T19:29:46.244Z,101240.69
2022-08-31T19:34:51.447Z,101235.56
2022-08-31T19:40:00.209Z,101231.72
2022-08-31T19:50:29.743Z,101211.19
2022-08-31T19:55:36.851Z,101211.94
2022-08-31T20:00:40.435Z,101208.88
2022-08-31T20:05:45.639Z,101207.44
2022-08-31T20:10:49.237Z,101214.50
2022-08-31T20:15:53.026Z,101209.38
2022-08-31T20:20:59.050Z,101201.25
2022-08-31T20:26:04.153Z,101201.81
2022-08-31T20:31:11.069Z,101188.19
2022-08-31T20:36:17.844Z,101197.06
2022-08-31T20:41:21.544Z,101189.91
2022-08-31T20:46:25.135Z,101185.00
2022-08-31T20:51:30.385Z,101171.56
2022-08-31T20:56:36.211Z,101164.56
2022-08-31T21:01:40.539Z,101161.00
2022-08-31T21:06:46.549Z,101152.50
2022-08-31T21:11:50.308Z,101141.97
2022-08-31T21:16:54.948Z,101146.81
2022-08-31T21:21:59.411Z,101132.38
2022-08-31T21:27:03.571Z,101123.75
2022-08-31T21:32:08.891Z,101108.16
2022-08-31T21:37:14.170Z,101099.00
2022-08-31T21:42:17.889Z,101097.34
2022-08-31T21:47:21.447Z,101081.06
2022-08-31T21:52:26.672Z,101080.63
2022-08-31T21:57:30.254Z,101071.81
2022-08-31T22:02:33.882Z,101066.72
2022-08-31T22:07:39.167Z,101052.06
2022-08-31T22:12:42.745Z,101042.84
2022-08-31T22:18:09.563Z,101044.13
2022-08-31T22:23:11.875Z,101039.59
2022-08-31T22:28:15.823Z,101032.28
2022-08-31T22:33:19.742Z,101022.22
2022-08-31T22:38:25.035Z,101026.59
2022-08-31T22:43:28.615Z,101021.94
2022-08-31T22:48:32.186Z,101009.94
2022-08-31T22:53:37.528Z,101007.66
2022-08-31T22:58:41.364Z,100992.84
2022-08-31T23:03:45.132Z,100993.00
2022-08-31T23:08:51.444Z,100992.13
2022-08-31T23:13:57.270Z,100987.31
2022-08-31T23:19:03.081Z,100979.56
2022-08-31T23:24:08.707Z,100971.78
2022-08-31T23:29:13.194Z,100965.56
2022-08-31T23:34:16.700Z,100958.50
2022-08-31T23:39:24.862Z,100949.34
2022-08-31T23:44:28.449Z,100947.78
2022-08-31T23:49:32.752Z,100948.75
2022-08-31T23:54:37.999Z,100938.72
2022-08-31T23:59:41.703Z,100935.06
